createdAt,value
2023-02-28T00:01:42.001Z,6.70
2023-02-28T00:04:12.271Z,6.91
2023-02-28T00:06:41.553Z,6.96
2023-02-28T00:09:10.334Z,6.94
2023-02-28T00:11:39.318Z,6.80
2023-02-28T00:14:08.148Z,6.78
2023-02-28T00:16:37.039Z,6.44
2023-02-28T00:19:05.875Z,6.27
2023-02-28T00:21:36.660Z,6.09
2023-02-28T00:24:06.204Z,6.31
2023-02-28T00:26:35.797Z,6.31
2023-02-28T00:29:04.726Z,6.44
2023-02-28T00:31:33.532Z,6.69
2023-02-28T00:34:02.345Z,6.63
2023-02-28T00:36:31.274Z,6.57
2023-02-28T00:39:02.013Z,6.66
2023-02-28T00:41:30.996Z,6.75
2023-02-28T00:43:59.857Z,6.63
2023-02-28T00:46:28.750Z,6.51
2023-02-28T00:48:58.082Z,6.57
2023-02-28T00:51:27.250Z,6.56
2023-02-28T00:53:56.270Z,6.62
2023-02-28T00:56:28.098Z,6.71
2023-02-28T00:58:56.891Z,6.75
2023-02-28T01:01:25.785Z,6.71
2023-02-28T01:03:54.636Z,6.65
2023-02-28T01:06:23.512Z,6.72
2023-02-28T01:08:52.459Z,6.70
2023-02-28T01:11:21.308Z,6.72
2023-02-28T01:13:51.477Z,6.79
2023-02-28T01:16:20.488Z,6.76
2023-02-28T01:18:49.506Z,6.72
2023-02-28T01:21:21.527Z,6.62
2023-02-28T01:23:51.416Z,6.74
2023-02-28T01:26:22.563Z,6.80
2023-02-28T01:28:54.095Z,6.74
2023-02-28T01:31:24.096Z,6.71
2023-02-28T01:33:53.025Z,7.12
2023-02-28T01:36:24.060Z,7.47
2023-02-28T01:38:53.608Z,7.15
2023-02-28T01:41:26.154Z,6.84
2023-02-28T01:44:05.229Z,6.81
2023-02-28T01:46:36.766Z,6.75
2023-02-28T01:49:13.659Z,6.71
2023-02-28T01:51:47.331Z,6.60
2023-02-28T01:54:20.307Z,6.67
2023-02-28T01:56:54.573Z,6.66
2023-02-28T01:59:29.160Z,6.62
2023-02-28T02:01:58.133Z,6.58
2023-02-28T02:04:34.667Z,6.45
2023-02-28T02:07:05.934Z,6.52
2023-02-28T02:09:34.845Z,6.51
2023-02-28T02:12:14.473Z,6.39
2023-02-28T02:14:58.096Z,6.39
2023-02-28T02:17:34.445Z,6.49
2023-02-28T02:20:35.901Z,6.63
2023-02-28T02:23:33.057Z,6.69
2023-02-28T02:26:14.260Z,6.37
2023-02-28T02:29:12.444Z,6.46
2023-02-28T02:32:16.693Z,6.57
2023-02-28T02:34:58.954Z,6.50
2023-02-28T02:37:39.308Z,6.38
2023-02-28T02:40:15.958Z,6.39
2023-02-28T02:42:52.691Z,6.45
2023-02-28T02:45:26.136Z,6.48
2023-02-28T02:48:01.936Z,6.53
2023-02-28T02:50:39.702Z,6.42
2023-02-28T02:53:11.300Z,6.27
2023-02-28T02:55:45.779Z,6.27
2023-02-28T02:58:18.965Z,6.18
2023-02-28T03:00:52.857Z,6.25
2023-02-28T03:03:30.040Z,6.13
2023-02-28T03:06:03.734Z,5.74
2023-02-28T03:08:40.315Z,6.08
2023-02-28T03:11:15.943Z,5.94
2023-02-28T03:14:07.423Z,5.62
2023-02-28T03:16:42.708Z,5.48
2023-02-28T03:19:19.597Z,5.42
2023-02-28T03:22:00.924Z,5.28
2023-02-28T03:24:38.186Z,5.34
2023-02-28T03:27:11.986Z,5.35
2023-02-28T03:29:46.984Z,5.43
2023-02-28T03:32:23.391Z,5.49
2023-02-28T03:35:02.693Z,5.58
2023-02-28T03:37:36.951Z,5.55
2023-02-28T03:40:13.819Z,5.66
2023-02-28T03:42:45.587Z,5.71
2023-02-28T03:45:18.742Z,5.81
2023-02-28T03:47:52.036Z,5.66
2023-02-28T03:50:24.224Z,5.56
2023-02-28T03:53:02.163Z,5.72
2023-02-28T03:55:35.054Z,5.79
2023-02-28T03:58:12.231Z,5.75
2023-02-28T04:00:45.543Z,5.98
2023-02-28T04:03:14.471Z,5.98
2023-02-28T04:05:53.639Z,6.02
2023-02-28T04:08:25.059Z,5.99
2023-02-28T04:11:03.262Z,5.79
2023-02-28T04:13:32.150Z,5.40
2023-02-28T04:16:00.963Z,5.58
2023-02-28T04:18:29.800Z,5.57
2023-02-28T04:21:02.407Z,5.57
2023-02-28T04:23:32.921Z,5.60
2023-02-28T04:26:02.081Z,5.77
2023-02-28T04:28:30.903Z,5.82
2023-02-28T04:31:00.836Z,5.95
2023-02-28T04:33:30.162Z,6.04
2023-02-28T04:36:04.089Z,6.04
2023-02-28T04:38:35.694Z,5.95
2023-02-28T04:41:05.361Z,6.24
2023-02-28T04:43:34.569Z,6.38
2023-02-28T04:46:05.723Z,6.35
2023-02-28T04:48:36.895Z,6.46
2023-02-28T04:51:08.216Z,6.46
2023-02-28T04:53:40.238Z,6.77
2023-02-28T04:56:09.738Z,6.82
2023-02-28T04:58:38.685Z,6.50
2023-02-28T05:01:18.175Z,6.67
2023-02-28T05:03:47.097Z,6.63
2023-02-28T05:06:16.477Z,6.66
2023-02-28T05:08:46.776Z,6.50
2023-02-28T05:11:19.628Z,6.23
2023-02-28T05:13:49.514Z,6.27
2023-02-28T05:16:19.546Z,6.32
2023-02-28T05:18:49.017Z,6.32
2023-02-28T05:21:29.131Z,6.43
2023-02-28T05:24:02.046Z,6.47
2023-02-28T05:26:31.672Z,6.57
2023-02-28T05:29:00.514Z,6.37
2023-02-28T05:31:29.960Z,6.44
2023-02-28T05:33:59.190Z,6.42
2023-02-28T05:36:28.057Z,6.57
2023-02-28T05:38:56.993Z,6.78
2023-02-28T05:41:27.989Z,6.86
2023-02-28T05:43:57.158Z,6.87
2023-02-28T05:46:26.099Z,6.72
2023-02-28T05:48:54.903Z,6.61
2023-02-28T05:51:23.837Z,6.62
2023-02-28T05:53:52.625Z,6.81
2023-02-28T05:56:21.457Z,6.79
2023-02-28T05:58:51.725Z,6.66
2023-02-28T06:01:34.572Z,6.67
2023-02-28T06:04:05.557Z,6.78
2023-02-28T06:06:36.855Z,6.66
2023-02-28T06:09:06.572Z,6.68
2023-02-28T06:11:35.407Z,6.83
2023-02-28T06:14:06.052Z,6.96
2023-02-28T06:16:36.984Z,6.81
2023-02-28T06:19:06.355Z,6.85
2023-02-28T06:21:35.203Z,7.02
2023-02-28T06:24:05.077Z,6.81
2023-02-28T06:26:33.965Z,7.41
2023-02-28T06:29:04.000Z,7.65
2023-02-28T06:31:34.450Z,7.72
2023-02-28T06:34:04.128Z,7.84
2023-02-28T06:36:33.202Z,8.08
2023-02-28T06:39:02.080Z,8.11
2023-02-28T06:41:38.417Z,8.25
2023-02-28T06:44:15.237Z,8.48
2023-02-28T06:46:46.777Z,8.65
2023-02-28T06:49:15.911Z,8.87
2023-02-28T06:51:47.046Z,9.00
2023-02-28T06:54:16.259Z,8.94
2023-02-28T06:56:46.040Z,8.55
2023-02-28T06:59:15.426Z,8.04
2023-02-28T07:01:46.236Z,7.79
2023-02-28T07:04:15.512Z,7.71
2023-02-28T07:06:44.662Z,7.63
2023-02-28T07:09:14.901Z,7.49
2023-02-28T07:11:44.937Z,7.35
2023-02-28T07:14:13.786Z,7.67
2023-02-28T07:16:42.645Z,8.05
2023-02-28T07:19:12.806Z,7.98
2023-02-28T07:21:41.664Z,8.40
2023-02-28T07:24:10.463Z,8.76
2023-02-28T07:26:39.274Z,9.06
2023-02-28T07:29:08.091Z,9.34
2023-02-28T07:31:36.983Z,9.37
2023-02-28T07:34:05.835Z,9.43
2023-02-28T07:36:36.054Z,9.37
2023-02-28T07:39:05.500Z,8.90
2023-02-28T07:41:35.092Z,8.99
2023-02-28T07:44:04.309Z,8.66
2023-02-28T07:46:36.836Z,8.83
2023-02-28T07:49:07.002Z,8.69
2023-02-28T07:51:37.294Z,8.59
2023-02-28T07:54:06.668Z,8.73
2023-02-28T07:56:35.604Z,8.05
2023-02-28T07:59:04.766Z,8.08
2023-02-28T08:01:34.168Z,8.06
2023-02-28T08:04:02.988Z,7.92
2023-02-28T08:06:31.756Z,7.76
2023-02-28T08:09:02.029Z,7.71
2023-02-28T08:11:31.152Z,7.52
2023-02-28T08:14:00.325Z,7.60
2023-02-28T08:16:29.689Z,7.83
2023-02-28T08:18:58.548Z,7.60
2023-02-28T08:21:27.768Z,7.63
2023-02-28T08:23:57.879Z,7.61
2023-02-28T08:26:28.104Z,7.62
2023-02-28T08:28:58.802Z,7.70
2023-02-28T08:31:29.176Z,7.58
2023-02-28T08:33:59.982Z,7.60
2023-02-28T08:36:31.002Z,8.09
2023-02-28T08:39:00.619Z,8.17
2023-02-28T08:41:31.709Z,8.32
2023-02-28T08:44:02.053Z,8.44
2023-02-28T08:46:30.987Z,8.09
2023-02-28T08:49:02.480Z,8.33
2023-02-28T08:51:31.814Z,8.76
2023-02-28T08:54:03.366Z,9.09
2023-02-28T08:56:33.670Z,8.89
2023-02-28T08:59:02.525Z,8.98
2023-02-28T09:01:32.731Z,9.18
2023-02-28T09:04:02.818Z,9.22
2023-02-28T09:06:32.011Z,9.46
2023-02-28T09:09:02.318Z,9.93
2023-02-28T09:11:32.644Z,10.40
2023-02-28T09:14:04.358Z,10.52
2023-02-28T09:16:35.206Z,11.37
2023-02-28T09:19:04.337Z,10.93
2023-02-28T09:21:33.247Z,10.23
2023-02-28T09:24:02.226Z,10.29
2023-02-28T09:27:01.541Z,10.06
2023-02-28T09:29:35.734Z,9.92
2023-02-28T09:32:06.848Z,9.98
2023-02-28T09:34:38.126Z,9.92
2023-02-28T09:37:07.036Z,9.82
2023-02-28T09:39:35.939Z,9.86
2023-02-28T09:42:06.143Z,9.41
2023-02-28T09:44:41.278Z,9.47
2023-02-28T09:47:17.523Z,9.56
2023-02-28T09:49:49.096Z,9.70
2023-02-28T09:52:20.575Z,9.50
2023-02-28T09:54:49.576Z,9.54
2023-02-28T09:57:30.280Z,9.58
2023-02-28T10:00:19.959Z,9.57
2023-02-28T10:03:05.123Z,9.49
2023-02-28T10:05:39.363Z,9.38
2023-02-28T10:08:16.149Z,9.61
2023-02-28T10:10:46.895Z,9.33
2023-02-28T10:13:22.840Z,9.31
2023-02-28T10:15:57.637Z,9.34
2023-02-28T10:18:30.665Z,9.54
2023-02-28T10:21:02.851Z,9.45
2023-02-28T10:23:37.048Z,9.84
2023-02-28T10:26:14.084Z,9.85
2023-02-28T10:28:42.912Z,9.54
2023-02-28T10:31:17.699Z,9.83
2023-02-28T10:33:47.362Z,10.18
2023-02-28T10:36:18.672Z,10.34
2023-02-28T10:38:48.769Z,10.36
2023-02-28T10:41:19.495Z,10.21
2023-02-28T10:43:48.337Z,10.75
2023-02-28T10:46:27.013Z,10.15
2023-02-28T10:49:07.740Z,10.37
2023-02-28T10:51:38.707Z,10.22
2023-02-28T10:54:07.814Z,10.51
2023-02-28T10:56:36.981Z,10.51
2023-02-28T10:59:29.548Z,10.72
2023-02-28T11:02:00.885Z,10.74
2023-02-28T11:04:40.999Z,10.46
2023-02-28T11:07:24.485Z,10.37
2023-02-28T11:09:56.553Z,10.19
2023-02-28T11:12:29.350Z,9.84
2023-02-28T11:15:02.478Z,9.64
2023-02-28T11:17:34.547Z,9.56
2023-02-28T11:20:25.564Z,9.53
2023-02-28T11:22:57.107Z,9.55
2023-02-28T11:25:28.973Z,9.45
2023-02-28T11:28:02.103Z,9.46
2023-02-28T11:30:34.956Z,9.40
2023-02-28T11:33:23.867Z,9.44
2023-02-28T11:35:54.854Z,9.51
2023-02-28T11:38:23.792Z,9.57
2023-02-28T11:41:05.203Z,9.19
2023-02-28T11:43:51.756Z,9.17
2023-02-28T11:46:31.461Z,9.50
2023-02-28T11:49:19.060Z,9.56
2023-02-28T11:51:54.032Z,9.35
2023-02-28T11:54:49.704Z,8.77
2023-02-28T11:57:33.508Z,8.45
2023-02-28T12:00:10.225Z,8.44
2023-02-28T12:02:58.666Z,8.42
2023-02-28T12:05:36.285Z,8.20
2023-02-28T12:08:17.755Z,8.37
2023-02-28T12:11:00.475Z,8.21
2023-02-28T12:13:43.708Z,8.38
2023-02-28T12:16:27.073Z,8.19
2023-02-28T12:19:09.452Z,8.11
2023-02-28T12:21:55.126Z,8.29
2023-02-28T12:24:34.280Z,8.40
2023-02-28T12:27:09.843Z,8.21
2023-02-28T12:29:47.227Z,8.09
2023-02-28T12:32:21.048Z,8.04
2023-02-28T12:34:54.089Z,7.99
2023-02-28T12:37:30.346Z,8.10
2023-02-28T12:40:06.584Z,8.03
2023-02-28T12:42:41.930Z,7.97
2023-02-28T12:45:14.915Z,7.92
2023-02-28T12:47:46.823Z,8.01
2023-02-28T12:50:17.186Z,7.86
2023-02-28T12:53:02.081Z,7.68
2023-02-28T12:55:42.468Z,7.68
2023-02-28T12:58:18.319Z,7.82
2023-02-28T13:01:09.659Z,7.66
2023-02-28T13:03:54.102Z,7.62
2023-02-28T13:06:44.205Z,7.47
2023-02-28T13:09:16.694Z,7.66
2023-02-28T13:11:47.864Z,7.65
2023-02-28T13:14:26.441Z,7.57
2023-02-28T13:17:03.551Z,7.86
2023-02-28T13:19:35.586Z,7.80
2023-02-28T13:22:05.562Z,7.84
2023-02-28T13:24:48.004Z,7.42
2023-02-28T13:27:26.767Z,7.19
2023-02-28T13:29:56.255Z,7.43
2023-02-28T13:32:42.951Z,7.43
2023-02-28T13:35:37.500Z,7.57
2023-02-28T13:38:37.920Z,7.53
2023-02-28T13:41:46.408Z,7.09
2023-02-28T13:44:17.818Z,7.46
2023-02-28T13:47:25.738Z,7.15
2023-02-28T13:49:54.957Z,7.14
2023-02-28T13:52:26.374Z,7.08
2023-02-28T13:55:17.144Z,6.91
2023-02-28T13:58:00.353Z,7.11
2023-02-28T14:00:42.453Z,6.79
2023-02-28T14:03:36.743Z,6.94
2023-02-28T14:06:17.423Z,7.12
2023-02-28T14:08:57.478Z,6.81
2023-02-28T14:11:29.935Z,6.55
2023-02-28T14:14:00.334Z,6.92
2023-02-28T14:16:39.131Z,6.72
2023-02-28T14:19:14.626Z,6.68
2023-02-28T14:22:00.965Z,6.55
2023-02-28T14:24:58.301Z,6.47
2023-02-28T14:27:47.145Z,6.37
2023-02-28T14:30:45.354Z,6.57
2023-02-28T14:33:24.983Z,6.57
2023-02-28T14:36:06.959Z,6.39
2023-02-28T14:38:42.426Z,6.62
2023-02-28T14:41:19.506Z,6.48
2023-02-28T14:43:57.935Z,6.60
2023-02-28T14:46:36.941Z,6.67
2023-02-28T14:49:07.000Z,6.60
2023-02-28T14:51:36.025Z,6.45
2023-02-28T14:54:06.019Z,6.24
2023-02-28T14:56:38.971Z,6.26
2023-02-28T14:59:26.503Z,6.38
2023-02-28T15:02:23.673Z,6.37
2023-02-28T15:04:57.789Z,6.14
2023-02-28T15:07:31.775Z,6.01
2023-02-28T15:10:19.140Z,6.21
2023-02-28T15:12:54.586Z,6.30
2023-02-28T15:15:31.940Z,6.48
2023-02-28T15:18:17.736Z,6.10
2023-02-28T15:20:47.652Z,6.11
2023-02-28T15:23:17.886Z,6.18
2023-02-28T15:25:47.042Z,6.04
2023-02-28T15:28:20.390Z,5.93
2023-02-28T15:31:00.715Z,6.02
2023-02-28T15:33:32.543Z,6.05
2023-02-28T15:36:13.861Z,6.34
2023-02-28T15:38:44.791Z,6.02
2023-02-28T15:41:26.753Z,6.05
2023-02-28T15:44:16.347Z,6.07
2023-02-28T15:46:47.454Z,6.20
2023-02-28T15:49:22.005Z,6.23
2023-02-28T15:51:52.648Z,6.35
2023-02-28T15:54:25.453Z,6.27
2023-02-28T15:56:56.380Z,6.31
2023-02-28T15:59:30.536Z,6.54
2023-02-28T16:02:16.729Z,6.35
2023-02-28T16:05:05.365Z,6.30
2023-02-28T16:07:35.239Z,6.12
2023-02-28T16:10:04.675Z,6.11
2023-02-28T16:12:35.929Z,6.21
2023-02-28T16:15:10.399Z,6.16
2023-02-28T16:17:41.438Z,6.49
2023-02-28T16:20:17.163Z,6.14
2023-02-28T16:22:46.726Z,6.27
2023-02-28T16:25:16.711Z,6.28
2023-02-28T16:27:47.244Z,6.22
2023-02-28T16:30:21.872Z,6.51
2023-02-28T16:32:52.082Z,6.66
2023-02-28T16:35:23.527Z,6.23
2023-02-28T16:37:53.685Z,6.40
2023-02-28T16:40:26.379Z,6.27
2023-02-28T16:42:59.813Z,6.40
2023-02-28T16:45:30.737Z,5.90
2023-02-28T16:47:59.667Z,5.89
2023-02-28T16:50:33.609Z,6.17
2023-02-28T16:53:03.241Z,6.34
2023-02-28T16:55:32.367Z,6.28
2023-02-28T16:58:03.088Z,6.30
2023-02-28T17:00:34.727Z,6.16
2023-02-28T17:03:06.386Z,6.37
2023-02-28T17:05:40.712Z,6.13
2023-02-28T17:08:11.089Z,5.93
2023-02-28T17:10:39.922Z,6.24
2023-02-28T17:13:14.919Z,6.16
2023-02-28T17:15:47.411Z,6.41
2023-02-28T17:18:19.890Z,6.68
2023-02-28T17:20:50.595Z,6.71
2023-02-28T17:23:19.405Z,6.75
2023-02-28T17:25:57.610Z,6.75
2023-02-28T17:28:26.995Z,6.73
2023-02-28T17:30:55.907Z,6.73
2023-02-28T17:33:24.768Z,6.65
2023-02-28T17:35:55.012Z,6.83
2023-02-28T17:38:24.171Z,7.03
2023-02-28T17:40:58.065Z,6.95
2023-02-28T17:43:27.240Z,6.87
2023-02-28T17:45:56.577Z,6.77
2023-02-28T17:48:25.394Z,6.72
2023-02-28T17:50:55.690Z,6.55
2023-02-28T17:53:24.697Z,6.47
2023-02-28T17:55:53.504Z,6.34
2023-02-28T17:58:22.389Z,6.46
2023-02-28T18:00:54.836Z,6.41
2023-02-28T18:03:25.285Z,6.43
2023-02-28T18:05:57.841Z,6.36
2023-02-28T18:08:26.983Z,6.51
2023-02-28T18:10:55.850Z,6.71
2023-02-28T18:13:24.815Z,6.84
2023-02-28T18:15:53.639Z,6.90
2023-02-28T18:18:23.270Z,7.01
2023-02-28T18:20:53.355Z,7.06
2023-02-28T18:23:23.558Z,7.02
2023-02-28T18:25:52.470Z,6.84
2023-02-28T18:28:21.384Z,6.96
2023-02-28T18:30:50.198Z,7.11
2023-02-28T18:33:20.209Z,6.82
2023-02-28T18:35:57.009Z,6.88
2023-02-28T18:38:27.273Z,6.56
2023-02-28T18:40:59.366Z,6.77
2023-02-28T18:43:28.282Z,6.68
2023-02-28T18:45:57.124Z,6.65
2023-02-28T18:48:26.184Z,6.60
2023-02-28T18:50:54.998Z,6.46
2023-02-28T18:53:23.929Z,6.41
2023-02-28T18:55:54.148Z,6.46
2023-02-28T18:58:22.963Z,6.32
2023-02-28T19:00:51.775Z,6.32
2023-02-28T19:03:20.654Z,6.29
2023-02-28T19:05:50.991Z,6.47
2023-02-28T19:08:19.925Z,6.32
2023-02-28T19:10:48.757Z,6.11
2023-02-28T19:13:20.715Z,6.38
2023-02-28T19:15:50.900Z,6.27
2023-02-28T19:18:21.241Z,6.43
2023-02-28T19:20:50.065Z,6.60
2023-02-28T19:23:19.325Z,6.27
2023-02-28T19:25:48.174Z,6.37
2023-02-28T19:28:18.426Z,6.71
2023-02-28T19:30:48.849Z,6.56
2023-02-28T19:33:18.112Z,6.62
2023-02-28T19:35:47.046Z,6.71
2023-02-28T19:38:16.018Z,6.73
2023-02-28T19:40:45.613Z,6.53
2023-02-28T19:43:14.433Z,6.46
2023-02-28T19:45:44.635Z,6.52
2023-02-28T19:48:13.434Z,6.35
2023-02-28T19:50:42.305Z,6.42
2023-02-28T19:53:11.221Z,6.30
2023-02-28T19:55:40.068Z,6.38
2023-02-28T19:58:10.864Z,6.18
2023-02-28T20:00:39.726Z,6.26
2023-02-28T20:03:09.994Z,6.13
2023-02-28T20:05:38.877Z,6.10
2023-02-28T20:08:08.070Z,6.26
2023-02-28T20:10:37.446Z,6.06
2023-02-28T20:13:06.622Z,6.19
2023-02-28T20:15:36.479Z,6.47
2023-02-28T20:18:05.350Z,6.44
2023-02-28T20:20:37.674Z,6.25
2023-02-28T20:23:06.500Z,6.23
2023-02-28T20:25:35.374Z,6.21
2023-02-28T20:28:04.174Z,5.93
2023-02-28T20:30:33.007Z,5.93
2023-02-28T20:33:02.146Z,5.77
2023-02-28T20:35:31.048Z,5.83
2023-02-28T20:38:01.461Z,5.84
2023-02-28T20:40:30.321Z,5.82
2023-02-28T20:42:59.216Z,5.82
2023-02-28T20:45:28.082Z,5.71
2023-02-28T20:47:56.933Z,5.61
2023-02-28T20:50:25.837Z,5.59
2023-02-28T20:52:54.695Z,5.87
2023-02-28T20:55:25.271Z,5.69
2023-02-28T20:57:55.200Z,5.82
2023-02-28T21:00:26.389Z,5.88
2023-02-28T21:02:55.312Z,6.05
2023-02-28T21:05:24.354Z,5.62
2023-02-28T21:07:53.695Z,5.70
2023-02-28T21:10:22.507Z,5.53
2023-02-28T21:12:57.840Z,5.36
2023-02-28T21:15:27.027Z,5.46
2023-02-28T21:17:56.097Z,5.52
2023-02-28T21:20:25.014Z,5.46
2023-02-28T21:22:53.875Z,5.59
2023-02-28T21:25:22.745Z,5.41
2023-02-28T21:27:55.505Z,5.50
2023-02-28T21:30:24.374Z,5.38
2023-02-28T21:32:53.171Z,5.27
2023-02-28T21:35:22.067Z,5.30
2023-02-28T21:37:50.946Z,5.36
2023-02-28T21:40:19.940Z,5.42
2023-02-28T21:42:49.191Z,5.26
2023-02-28T21:45:19.413Z,5.15
2023-02-28T21:47:48.249Z,5.16
2023-02-28T21:50:17.240Z,5.16
2023-02-28T21:52:46.212Z,5.16
2023-02-28T21:55:15.095Z,5.11
2023-02-28T21:57:44.103Z,5.10
2023-02-28T22:00:16.941Z,4.98
2023-02-28T22:02:47.223Z,4.94
2023-02-28T22:05:16.090Z,4.95
2023-02-28T22:07:46.078Z,4.88
2023-02-28T22:10:14.943Z,4.91
2023-02-28T22:12:43.835Z,4.86
2023-02-28T22:15:13.717Z,4.80
2023-02-28T22:17:42.643Z,4.88
2023-02-28T22:20:13.826Z,4.73
2023-02-28T22:22:42.613Z,4.77
2023-02-28T22:25:11.769Z,4.82
2023-02-28T22:27:40.582Z,4.78
2023-02-28T22:30:11.291Z,4.57
2023-02-28T22:32:40.122Z,4.53
2023-02-28T22:35:10.145Z,4.58
2023-02-28T22:37:40.366Z,4.65
2023-02-28T22:40:10.697Z,4.77
2023-02-28T22:42:39.523Z,4.89
2023-02-28T22:45:09.486Z,4.93
2023-02-28T22:47:38.337Z,5.12
2023-02-28T22:50:07.814Z,5.43
2023-02-28T22:52:36.637Z,5.14
2023-02-28T22:55:08.378Z,5.35
2023-02-28T22:57:38.396Z,5.51
2023-02-28T23:00:15.446Z,5.65
2023-02-28T23:02:44.947Z,5.70
2023-02-28T23:05:14.001Z,5.88
2023-02-28T23:07:44.123Z,5.61
2023-02-28T23:10:17.953Z,5.72
2023-02-28T23:12:53.874Z,5.58
2023-02-28T23:15:23.619Z,5.45
2023-02-28T23:17:52.492Z,5.44
2023-02-28T23:20:22.184Z,5.56
2023-02-28T23:22:51.516Z,5.65
2023-02-28T23:25:22.204Z,5.61
2023-02-28T23:27:51.329Z,5.68
2023-02-28T23:30:20.599Z,5.65
2023-02-28T23:32:49.710Z,5.81
2023-02-28T23:35:19.240Z,5.84
2023-02-28T23:37:48.161Z,5.96
2023-02-28T23:40:18.174Z,6.07
2023-02-28T23:42:48.576Z,6.08
2023-02-28T23:45:17.627Z,5.96
2023-02-28T23:47:46.529Z,5.80
2023-02-28T23:50:15.416Z,5.71
2023-02-28T23:52:44.291Z,5.78
2023-02-28T23:55:13.123Z,5.79
2023-02-28T23:57:41.986Z,5.72
